Government of Jersey

Home Log in

METAR EGJJ 221250Z 10007KT 060V140 CAVOK 18/13 Q1012

METAR EGJB 221250Z 08006KT 030V100 CAVOK 18/12 Q1012

METAR EGJA 221250Z 05013KT CAVOK 15/10 Q1013

METAR LFRD 221300Z AUTO 34003KT 260V030 9999 ///TCU 19/15 Q1011 BECMG NSC

METAR LFRC 221300Z AUTO 09006KT 060V140 CAVOK 16/11 Q1012 NOSIG

METAR LFRT 221300Z AUTO 02003KT 340V060 9999 FEW007 SCT080 OVC110 15/13 Q1012